Latest Weather Observations for Cobar

IDN60801

Issued at 6:02 am EDT Friday 20 January 2017 (issued every 30 minutes, with the page automatically refreshed every 10 minutes)

About weather observations | Map of weather stations | Latest weather observations for NSW | Other Formats
Station Details ID: 048027 Name: COBAR MO Lat: -31.48 Lon: 145.83 Height: 260.0 m
Data from the previous 72 hours. | See also: Recent months at Cobar
Date/Time
EDT
Temp
°C
App
Temp
°C
Dew
Point
°C
Rel
Hum
%
Delta-T
°C
Wind Press
QNH
hPa
Press
MSL
hPa
Rain since
9am
mm
Dir  Spd
km/h
Gust
km/h
Spd
kts
Gust
kts
20/05:30am 29.9 30.9 18.7 51 7.3 NNW 11 17 6 9 1000.5 998.8 0.0
20/05:00am 29.9 31.3 18.7 51 7.3 N 9 13 5 7 1000.5 998.8 0.0
20/04:30am 30.0 31.3 18.4 49 7.5 NNW 9 11 5 6 1000.5 998.8 0.0
20/04:00am 30.4 31.3 18.5 49 7.8 NNW 11 15 6 8 1000.7 999.0 0.0
20/03:30am 31.0 31.3 18.7 48 8.0 NW 15 20 8 11 1001.1 999.4 0.0
20/03:00am 31.5 32.1 18.5 46 8.5 NW 13 19 7 10 1001.5 999.8 0.0
20/02:30am 32.0 30.5 18.6 45 8.8 WNW 24 37 13 20 1002.2 1000.5 0.0
20/02:00am 32.8 33.0 18.6 43 9.4 WNW 15 28 8 15 1002.4 1000.7 0.0
20/01:30am 32.5 33.2 17.9 41 9.5 NW 11 19 6 10 1002.3 1000.6 0.0
20/01:00am 32.2 32.7 16.5 39 10.0 NNW 9 13 5 7 1002.6 1000.9 0.0
20/12:30am 32.4 32.6 15.8 36 10.5 N 9 13 5 7 1002.5 1000.8 0.0
20/12:00am 32.9 32.6 15.4 35 11.0 N 11 15 6 8 1002.5 1000.8 0.0
 
Date/Time
EDT
Temp
°C
App
Temp
°C
Dew
Point
°C
Rel
Hum
%
Delta-T
°C
Wind Press
QNH
hPa
Press
MSL
hPa
Rain since
9am
mm
Dir  Spd
km/h
Gust
km/h
Spd
kts
Gust
kts
19/11:30pm 32.9 32.8 15.0 34 11.2 N 9 11 5 6 1002.9 1001.2 0.0
19/11:00pm 34.1 34.4 15.1 32 12.0 NNW 7 11 4 6 1003.1 1001.4 0.0
19/10:30pm 34.7 34.1 14.6 30 12.6 NNW 11 17 6 9 1003.1 1001.4 0.0
19/10:00pm 34.9 33.8 10.0 22 14.6 NNE 6 11 3 6 1003.3 1001.6 0.0
19/09:30pm 35.8 34.7 10.1 21 15.1 E 6 7 3 4 1003.2 1001.5 0.0
19/09:00pm 36.0 35.0 10.2 21 15.2 S 6 7 3 4 1003.2 1001.5 0.0
19/08:30pm 36.8 35.6 10.2 20 15.7 SW 7 9 4 5 1003.0 1001.3 0.0
19/08:00pm 38.4 36.5 9.0 17 17.2 WSW 9 15 5 8 1002.8 1001.1 0.0
19/07:30pm 39.3 37.4 8.9 16 17.8 SW 9 15 5 8 1002.7 1001.0 0.0
19/07:00pm 39.6 36.9 9.1 16 18.0 SW 13 19 7 10 1002.8 1001.1 0.0
19/06:30pm 40.0 37.0 9.4 16 18.1 WSW 15 20 8 11 1002.9 1001.2 0.0
19/06:00pm 40.3 37.5 8.7 15 18.6 WSW 13 20 7 11 1003.1 1001.4 0.0
19/05:30pm 40.7 38.4 9.0 15 18.7 W 11 20 6 11 1003.4 1001.7 0.0
19/05:00pm 40.1 37.2 9.5 16 18.2 WSW 15 22 8 12 1003.9 1002.3 0.0
19/04:30pm 39.2 37.2 8.8 16 17.8 N 9 17 5 9 1004.6 1002.9 0.0
19/04:00pm 39.9 37.7 9.3 16 18.1 WSW 11 17 6 9 1005.2 1003.5 0.0
19/03:30pm 40.3 37.4 9.6 16 18.2 WSW 15 22 8 12 1005.7 1004.0 0.0
19/03:00pm 38.1 36.0 9.6 18 16.8 W 11 20 6 11 1006.3 1004.6 0.0
19/02:30pm 38.2 35.1 8.9 17 17.1 SSW 15 24 8 13 1006.9 1005.2 0.0
19/02:00pm 38.8 37.0 9.4 17 17.3 NNE 9 17 5 9 1007.4 1005.8 0.0
19/01:30pm 37.3 35.4 9.0 18 16.5 SSE 9 15 5 8 1007.9 1006.3 0.0
19/01:00pm 38.1 36.7 9.6 18 16.8 NW 7 13 4 7 1008.5 1006.8 0.0
19/12:30pm 36.4 34.5 9.1 19 15.8 SE 9 17 5 9 1008.8 1007.1 0.0
19/12:00pm 36.3 35.4 10.5 21 15.3 NE 6 11 3 6 1009.1 1007.4 0.0
19/11:30am 34.9 33.4 10.7 23 14.3 NE 9 19 5 10 1009.4 1007.7 0.0
19/11:00am 33.8 31.9 10.4 24 13.7 ESE 11 19 6 10 1009.6 1007.9 0.0
19/10:30am 31.8 29.5 10.5 27 12.4 E 13 19 7 10 1009.8 1008.1 0.0
19/10:00am 30.8 28.7 9.6 27 12.1 ESE 11 17 6 9 1010.0 1008.3 0.0
19/09:30am 30.3 27.5 8.7 26 12.1 ESE 13 20 7 11 1010.2 1008.5 0.0
19/09:00am 29.8 26.2 8.2 26 12.0 ESE 17 22 9 12 1010.3 1008.6 0.0
19/08:30am 28.4 25.1 6.5 25 11.7 SE 13 19 7 10 1010.1 1008.4 0.0
19/08:00am 27.5 24.8 7.4 28 10.9 SE 11 17 6 9 1010.0 1008.3 0.0
19/07:30am 26.4 24.6 9.3 34 9.5 S 9 13 5 7 1009.9 1008.2 0.0
19/07:00am 25.6 24.0 10.2 38 8.7 S 9 13 5 7 1009.6 1007.9 0.0
19/06:30am 25.1 24.3 10.9 41 8.1 SSE 6 7 3 4 1009.6 1007.9 0.0
19/06:00am 24.9 23.9 10.4 40 8.2 SW 6 7 3 4 1009.4 1007.7 0.0
19/05:30am 24.9 23.5 10.8 41 8.0 SW 9 9 5 5 1009.2 1007.5 0.0
19/05:00am 25.9 24.0 10.5 38 8.7 S 11 15 6 8 1008.7 1007.0 0.0
19/04:30am 26.1 24.9 11.5 40 8.4 S 9 11 5 6 1008.5 1006.8 0.0
19/04:00am 26.6 25.8 13.0 43 8.1 SSW 9 15 5 8 1008.7 1007.0 0.0
19/03:30am 26.4 27.3 17.5 58 5.6 WSW 9 13 5 7 1008.7 1007.0 0.0
19/03:00am 26.5 28.2 20.1 68 4.2 WNW 11 15 6 8 1009.0 1007.3 0.0
19/02:30am 26.4 28.6 21.2 73 3.5 NW 11 13 6 7 1009.2 1007.5 0.0
19/02:00am 26.1 28.5 20.9 73 3.5 NNW 9 13 5 7 1009.2 1007.5 0.0
19/01:30am 26.3 28.9 20.4 70 3.9 NNW 7 11 4 6 1009.4 1007.7 0.0
19/01:00am 27.6 29.9 20.7 66 4.6 WNW 9 11 5 6 1009.5 1007.8 0.0
19/12:30am 27.8 31.6 20.1 63 5.1 CALM 0 0 0 0 1009.8 1008.1 0.0
19/12:00am 28.9 32.3 20.9 62 5.4 SSE 4 7 2 4 1010.2 1008.5 0.0
 
Date/Time
EDT
Temp
°C
App
Temp
°C
Dew
Point
°C
Rel
Hum
%
Delta-T
°C
Wind Press
QNH
hPa
Press
MSL
hPa
Rain since
9am
mm
Dir  Spd
km/h
Gust
km/h
Spd
kts
Gust
kts
18/11:30pm 29.3 31.9 20.5 59 5.9 WSW 7 13 4 7 1010.2 1008.5 0.0
18/11:00pm 29.7 31.1 21.1 60 5.8 WNW 15 22 8 12 1009.9 1008.2 0.0
18/10:30pm 29.9 30.1 20.5 57 6.3 NW 20 30 11 16 1009.8 1008.1 0.0
18/10:00pm 30.9 29.4 17.6 45 8.6 NNW 22 33 12 18 1010.1 1008.4 0.0
18/09:30pm 31.9 30.4 15.4 37 10.3 NW 17 24 9 13 1009.7 1008.0 0.0
18/09:00pm 33.1 33.1 15.1 33 11.3 WNW 9 17 5 9 1009.6 1007.9 0.0
18/08:30pm 35.4 33.1 13.0 26 13.7 NW 17 30 9 16 1009.3 1007.6 0.0
18/08:00pm 36.7 34.9 12.2 23 14.9 WSW 13 19 7 10 1008.9 1007.2 0.0
18/07:30pm 37.3 34.1 11.3 21 15.6 W 19 24 10 13 1008.2 1006.6 0.0
18/07:00pm 37.8 34.3 11.0 20 16.1 WSW 20 28 11 15 1007.6 1006.0 0.0
18/06:30pm 37.9 33.9 10.3 19 16.4 WSW 22 33 12 18 1007.1 1005.5 0.0
18/06:00pm 39.0 34.6 10.4 18 17.1 WSW 24 33 13 18 1007.0 1005.4 0.0
18/05:30pm 40.4 36.8 10.6 17 18.0 WNW 20 33 11 18 1006.9 1005.2 0.0
18/05:00pm 38.4 35.4 13.6 23 15.5 W 22 33 12 18 1007.1 1005.5 0.0
18/04:30pm 39.9 37.0 14.1 21 16.3 WSW 22 32 12 17 1007.3 1005.7 0.0
18/04:00pm 38.8 38.1 16.4 26 14.6 NW 15 22 8 12 1007.7 1006.1 0.0
18/03:30pm 38.2 37.5 16.5 28 14.1 WSW 15 32 8 17 1008.0 1006.4 0.0
18/03:00pm 38.6 36.2 13.8 23 15.5 W 19 30 10 16 1008.7 1007.0 0.0
18/02:30pm 36.1 35.6 17.7 33 12.0 NW 17 24 9 13 1009.3 1007.6 0.0
18/02:00pm 37.7 36.3 17.1 29 13.5 W 20 33 11 18 1009.3 1007.6 0.0
18/01:30pm 39.2 37.4 17.9 28 14.1 NW 24 37 13 20 1009.7 1008.0 0.0
18/01:00pm 36.9 35.3 16.5 30 13.2 NW 20 32 11 17 1009.9 1008.2 0.0
18/12:30pm 36.9 35.5 18.0 33 12.5 WNW 22 41 12 22 1010.2 1008.5 0.0
18/12:00pm 37.1 35.6 17.6 31 12.8 NW 22 33 12 18 1010.4 1008.7 0.0
18/11:30am 38.1 36.0 18.0 30 13.3 NNW 26 37 14 20 1010.3 1008.6 0.0
18/11:00am 35.2 32.3 17.9 36 11.3 NNW 30 39 16 21 1010.4 1008.7 0.0
18/10:30am 36.7 34.3 18.3 34 12.2 NNW 28 43 15 23 1010.5 1008.9 0.0
18/10:00am 35.0 32.0 18.6 38 10.8 NNW 32 46 17 25 1010.6 1009.0 0.0
18/09:52am 35.0 32.8 18.6 38 10.8 NNW 28 46 15 25 1010.6 1009.0 0.0
18/09:30am 34.7 33.3 18.7 38 10.6 NNW 24 39 13 21 1010.7 1009.1 0.0
18/09:00am 34.1 33.0 18.6 40 10.2 NNW 22 30 12 16 1010.7 1009.1 0.0
18/08:30am 33.0 31.4 18.4 42 9.6 NNW 24 37 13 20 1010.8 1009.2 0.0
18/08:00am 32.3 30.8 18.5 44 9.0 N 24 32 13 17 1010.4 1008.7 0.0
18/07:30am 30.7 29.9 18.1 47 8.2 N 19 30 10 16 1009.9 1008.2 0.0
18/07:00am 29.9 30.2 18.7 51 7.3 N 15 20 8 11 1009.7 1008.0 0.0
18/06:30am 29.9 30.4 18.3 49 7.5 N 13 20 7 11 1009.5 1007.8 0.0
18/06:00am 30.6 29.9 18.3 47 8.0 N 19 26 10 14 1008.9 1007.2 0.0
18/05:30am 30.8 30.1 18.2 47 8.2 N 19 26 10 14 1008.7 1007.0 0.0
18/05:00am 31.5 29.8 18.1 44 8.7 N 24 39 13 21 1008.6 1006.9 0.0
18/04:30am 31.7 30.9 17.2 42 9.3 N 17 24 9 13 1008.2 1006.6 0.0
18/04:00am 32.1 31.0 17.2 41 9.6 N 19 24 10 13 1008.0 1006.4 0.0
18/03:30am 32.1 32.1 17.2 41 9.6 NNE 13 15 7 8 1008.2 1006.6 0.0
18/03:00am 32.9 32.9 17.1 39 10.2 N 13 19 7 10 1008.2 1006.6 0.0
18/02:30am 33.1 32.6 16.9 38 10.4 N 15 22 8 12 1008.4 1006.7 0.0
18/02:00am 33.3 32.7 16.6 36 10.7 N 15 19 8 10 1008.6 1006.9 0.0
18/01:30am 33.2 33.5 17.0 38 10.4 N 11 17 6 9 1008.8 1007.1 0.0
18/01:00am 33.1 33.5 17.3 39 10.2 NNE 11 15 6 8 1008.9 1007.2 0.0
18/12:30am 33.1 33.3 17.7 40 10.0 NNE 13 17 7 9 1009.0 1007.3 0.0
18/12:00am 33.9 33.3 16.7 35 11.1 NNE 15 20 8 11 1008.8 1007.1 0.0
 
Date/Time
EDT
Temp
°C
App
Temp
°C
Dew
Point
°C
Rel
Hum
%
Delta-T
°C
Wind Press
QNH
hPa
Press
MSL
hPa
Rain since
9am
mm
Dir  Spd
km/h
Gust
km/h
Spd
kts
Gust
kts
17/11:30pm 34.7 34.2 17.0 35 11.4 NNE 15 20 8 11 1009.1 1007.4 0.0
17/11:00pm 33.2 29.7 16.5 36 10.7 N 30 54 16 29 1009.7 1008.0 0.0
17/10:54pm 32.7 28.8 16.5 37 10.3 NNW 32 54 17 29 1009.7 1008.0 0.0
17/10:48pm 34.6 32.4 16.0 33 11.8 NNW 22 48 12 26 1009.6 1007.9 0.0
17/10:30pm 37.1 35.3 13.2 24 14.8 WSW 15 22 8 12 1008.8 1007.1 0.0
17/10:00pm 37.7 35.4 13.0 23 15.3 WNW 17 28 9 15 1008.8 1007.1 0.0
17/09:30pm 36.9 35.3 11.7 22 15.2 NW 11 13 6 7 1008.5 1006.8 0.0
17/09:00pm 37.6 36.2 10.8 20 16.0 NNW 9 13 5 7 1008.1 1006.5 0.0
17/08:30pm 38.9 36.9 10.3 18 17.1 NW 11 17 6 9 1007.7 1006.1 0.0
17/08:00pm 40.0 38.4 10.3 17 17.8 NNW 9 13 5 7 1007.4 1005.8 0.0
17/07:30pm 40.4 39.3 10.6 17 18.0 WNW 7 11 4 6 1007.3 1005.7 0.0
17/07:00pm 40.4 38.1 10.6 17 18.0 NW 13 24 7 13 1007.3 1005.7 0.0
17/06:30pm 40.6 37.6 10.8 17 18.0 WNW 17 28 9 15 1007.3 1005.7 0.0
17/06:00pm 41.2 38.5 10.4 16 18.6 W 15 28 8 15 1007.5 1005.9 0.0
17/05:30pm 42.4 39.7 10.3 15 19.4 NNW 15 24 8 13 1007.6 1006.0 0.0
17/05:00pm 42.3 39.8 11.2 16 19.1 NNW 15 28 8 15 1007.9 1006.3 0.0
17/04:30pm 42.2 39.3 11.1 16 19.0 NW 17 22 9 12 1008.4 1006.7 0.0
17/04:17pm 42.3 38.9 11.2 16 19.0 WNW 20 33 11 18 1008.6 1006.9 0.0
17/04:00pm 41.0 38.9 11.1 17 18.2 NW 13 20 7 11 1008.7 1007.0 0.0
17/03:30pm 42.2 38.7 12.1 17 18.6 W 22 33 12 18 1009.0 1007.3 0.0
17/03:00pm 39.7 36.2 10.9 18 17.4 NNW 20 33 11 18 1009.5 1007.8 0.0
17/02:30pm 40.0 36.3 10.3 17 17.8 NNW 20 35 11 19 1009.9 1008.2 0.0
17/02:00pm 39.7 37.9 10.9 18 17.4 WNW 11 19 6 10 1010.3 1008.6 0.0
17/01:30pm 41.0 37.1 12.0 18 17.9 WNW 24 32 13 17 1010.7 1009.1 0.0
17/01:00pm 40.5 36.4 11.6 18 17.7 NNW 24 37 13 20 1011.4 1009.8 0.0
17/12:30pm 39.9 36.8 13.4 21 16.6 NW 22 39 12 21 1011.6 1010.0 0.0
17/12:00pm 38.6 36.7 15.7 26 14.7 NNW 20 33 11 18 1012.1 1010.5 0.0
17/11:30am 38.4 35.5 16.1 27 14.4 NNW 26 37 14 20 1012.6 1010.9 0.0
17/11:00am 37.9 35.7 16.8 29 13.7 NNW 24 33 13 18 1012.8 1011.1 0.0
17/10:30am 36.4 35.0 17.0 31 12.6 N 20 32 11 17 1012.9 1011.2 0.0
17/10:00am 36.5 34.4 17.1 31 12.6 N 24 35 13 19 1013.0 1011.3 0.0
17/09:30am 35.1 32.5 16.9 34 11.8 N 26 35 14 19 1013.0 1011.3 0.0
17/09:00am 34.9 32.8 17.2 35 11.5 N 24 41 13 22 1012.9 1011.2 0.0
17/08:30am 33.7 32.3 17.0 37 10.8 N 20 30 11 16 1012.8 1011.1 0.0
17/08:00am 32.4 30.5 16.7 39 10.0 NNE 22 32 12 17 1012.6 1010.9 0.0
17/07:30am 31.0 29.5 16.2 41 9.3 NNE 19 24 10 13 1012.2 1010.6 0.0
17/07:00am 29.7 28.9 16.1 43 8.5 NNE 15 20 8 11 1011.7 1010.1 0.0
17/06:30am 29.0 28.6 16.2 46 8.0 NNE 13 17 7 9 1011.4 1009.8 0.0

Other Formats:

Comma delimited format used in spreadsheet applications
http://www.bom.gov.au/fwo/IDN60801/IDN60801.94711.axf

JavaScript Object Notation format (JSON) in row-major order
http://www.bom.gov.au/fwo/IDN60801/IDN60801.94711.json